createdAt,value
2018-11-25T00:01:10.952Z,58.63
2018-11-25T00:03:44.553Z,57.73
2018-11-25T00:06:18.113Z,51.57
2018-11-25T00:08:51.703Z,57.33
2018-11-25T00:11:25.285Z,58.83
2018-11-25T00:13:58.849Z,63.83
2018-11-25T00:16:32.523Z,60.27
2018-11-25T00:19:06.781Z,63.23
2018-11-25T00:21:40.344Z,60.80
2018-11-25T00:24:13.932Z,65.87
2018-11-25T00:26:47.525Z,68.73
2018-11-25T00:29:21.194Z,68.13
2018-11-25T00:31:54.903Z,63.17
2018-11-25T00:34:28.501Z,61.37
2018-11-25T00:37:02.057Z,60.40
2018-11-25T00:39:35.651Z,58.77
2018-11-25T00:42:09.227Z,66.30
2018-11-25T00:44:42.847Z,59.70
2018-11-25T00:47:16.431Z,63.20
2018-11-25T00:49:50.057Z,59.67
2018-11-25T00:52:23.653Z,64.10
2018-11-25T00:54:57.360Z,63.43
2018-11-25T00:57:30.945Z,55.83
2018-11-25T01:00:06.435Z,59.60
2018-11-25T01:02:40.071Z,64.33
2018-11-25T01:05:14.406Z,62.30
2018-11-25T01:07:48.380Z,60.13
2018-11-25T01:10:21.967Z,58.87
2018-11-25T01:12:55.590Z,54.70
2018-11-25T01:15:29.186Z,62.60
2018-11-25T01:18:02.738Z,60.80
2018-11-25T01:20:36.347Z,61.23
2018-11-25T01:23:10.283Z,58.73
2018-11-25T01:25:43.908Z,56.83
2018-11-25T01:28:17.495Z,58.87
2018-11-25T01:30:51.111Z,65.37
2018-11-25T01:33:24.679Z,60.23
2018-11-25T01:35:58.326Z,62.03
2018-11-25T01:38:31.912Z,57.93
2018-11-25T01:41:05.799Z,64.77
2018-11-25T01:43:39.379Z,57.20
2018-11-25T01:46:13.002Z,55.20
2018-11-25T01:48:46.592Z,54.73
2018-11-25T01:51:20.218Z,56.77
2018-11-25T01:53:53.817Z,58.87
2018-11-25T01:56:27.418Z,55.17
2018-11-25T01:59:00.999Z,61.30
2018-11-25T02:01:34.571Z,59.10
2018-11-25T02:04:08.214Z,65.10
2018-11-25T02:06:41.844Z,59.70
2018-11-25T02:09:15.723Z,65.87
2018-11-25T02:11:49.667Z,58.60
2018-11-25T02:14:23.222Z,65.23
2018-11-25T02:16:56.838Z,58.33
2018-11-25T02:19:30.474Z,60.53
2018-11-25T02:22:04.072Z,63.67
2018-11-25T02:24:37.659Z,65.40
2018-11-25T02:27:11.254Z,61.67
2018-11-25T02:29:44.850Z,63.23
2018-11-25T02:32:18.486Z,62.13
2018-11-25T02:34:52.070Z,65.17
2018-11-25T02:37:25.682Z,64.90
2018-11-25T02:39:59.269Z,65.93
2018-11-25T02:42:32.971Z,73.83
2018-11-25T02:45:09.614Z,63.97
2018-11-25T02:47:43.634Z,60.87
2018-11-25T02:50:32.646Z,66.10
2018-11-25T02:53:07.422Z,72.00
2018-11-25T02:55:41.006Z,68.43
2018-11-25T02:58:14.594Z,62.60
2018-11-25T03:00:48.226Z,69.40
2018-11-25T03:03:21.854Z,69.43
2018-11-25T03:05:55.416Z,62.60
2018-11-25T03:08:29.078Z,74.37
2018-11-25T03:11:02.680Z,65.30
2018-11-25T03:13:36.285Z,60.60
2018-11-25T03:16:09.848Z,70.37
2018-11-25T03:18:43.438Z,68.03
2018-11-25T03:21:17.019Z,69.70
2018-11-25T03:23:50.615Z,70.33
2018-11-25T03:26:24.193Z,74.07
2018-11-25T03:28:57.845Z,74.63
2018-11-25T03:31:31.422Z,65.43
2018-11-25T03:34:05.586Z,71.83
2018-11-25T03:36:39.156Z,73.00
2018-11-25T03:39:12.759Z,67.37
2018-11-25T03:41:46.577Z,73.20
2018-11-25T03:44:20.478Z,71.30
2018-11-25T03:46:54.071Z,77.47
2018-11-25T03:49:27.697Z,77.10
2018-11-25T03:52:01.281Z,77.70
2018-11-25T03:54:34.887Z,74.00
2018-11-25T03:57:08.428Z,71.27
2018-11-25T03:59:42.029Z,74.00
2018-11-25T04:02:15.625Z,76.03
2018-11-25T04:04:49.220Z,77.27
2018-11-25T04:07:22.773Z,83.07
2018-11-25T04:09:56.741Z,81.27
2018-11-25T04:12:30.306Z,80.40
2018-11-25T04:15:04.154Z,81.23
2018-11-25T04:17:37.786Z,78.93
2018-11-25T04:20:16.135Z,76.90
2018-11-25T04:22:50.473Z,75.33
2018-11-25T04:25:24.052Z,76.30
2018-11-25T04:27:57.593Z,79.63
2018-11-25T04:30:31.239Z,77.50
2018-11-25T04:33:04.893Z,77.90
2018-11-25T04:35:38.540Z,77.70
2018-11-25T04:38:12.156Z,73.57
2018-11-25T04:40:45.796Z,75.80
2018-11-25T04:43:19.412Z,71.33
2018-11-25T04:45:53.006Z,68.73
2018-11-25T04:48:26.585Z,75.07
2018-11-25T04:51:00.161Z,77.53
2018-11-25T04:53:33.724Z,69.37
2018-11-25T04:56:07.330Z,71.57
2018-11-25T04:58:40.911Z,80.00
2018-11-25T05:01:14.782Z,72.27
2018-11-25T05:03:48.344Z,70.30
2018-11-25T05:06:21.928Z,72.20
2018-11-25T05:08:55.495Z,71.67
2018-11-25T05:11:29.093Z,73.73
2018-11-25T05:14:02.658Z,69.17
2018-11-25T05:16:36.317Z,80.97
2018-11-25T05:19:09.916Z,72.47
2018-11-25T05:21:43.526Z,78.40
2018-11-25T05:24:17.113Z,75.90
2018-11-25T05:26:50.713Z,72.17
2018-11-25T05:29:24.422Z,75.87
2018-11-25T05:31:57.988Z,79.30
2018-11-25T05:34:31.568Z,84.70
2018-11-25T05:37:05.148Z,81.70
2018-11-25T05:39:38.715Z,88.27
2018-11-25T05:42:12.302Z,92.33
2018-11-25T05:44:45.860Z,93.73
2018-11-25T05:47:19.435Z,100.67
2018-11-25T05:49:52.999Z,88.07
2018-11-25T05:52:26.585Z,95.83
2018-11-25T05:55:00.182Z,94.93
2018-11-25T05:57:33.822Z,92.17
2018-11-25T06:00:14.205Z,94.83
2018-11-25T06:02:47.827Z,88.13
2018-11-25T06:05:21.382Z,82.03
2018-11-25T06:07:55.067Z,93.13
2018-11-25T06:10:28.622Z,89.17
2018-11-25T06:13:02.214Z,95.13
2018-11-25T06:15:35.826Z,96.63
2018-11-25T06:18:09.411Z,96.47
2018-11-25T06:20:43.009Z,98.50
2018-11-25T06:23:16.611Z,104.93
2018-11-25T06:25:50.170Z,97.03
2018-11-25T06:28:23.772Z,98.67
2018-11-25T06:30:57.348Z,88.10
2018-11-25T06:33:30.962Z,94.67
2018-11-25T06:36:04.602Z,93.03
2018-11-25T06:38:38.220Z,89.43
2018-11-25T06:41:11.803Z,91.27
2018-11-25T06:43:45.411Z,84.47
2018-11-25T06:46:19.027Z,89.33
2018-11-25T06:48:55.051Z,88.40
2018-11-25T06:51:26.326Z,77.97
2018-11-25T06:53:59.929Z,87.37
2018-11-25T06:56:33.511Z,79.93
2018-11-25T06:59:07.258Z,78.57
2018-11-25T07:01:40.850Z,79.10
2018-11-25T07:04:14.649Z,79.20
2018-11-25T07:06:48.211Z,75.60
2018-11-25T07:09:21.775Z,72.83
2018-11-25T07:11:55.305Z,81.30
2018-11-25T07:14:28.910Z,83.80
2018-11-25T07:17:02.492Z,73.67
2018-11-25T07:19:36.089Z,77.27
2018-11-25T07:22:09.894Z,72.83
2018-11-25T07:24:43.474Z,71.27
2018-11-25T07:27:17.127Z,75.13
2018-11-25T07:29:50.713Z,80.77
2018-11-25T07:32:24.343Z,83.37
2018-11-25T07:34:58.648Z,75.87
2018-11-25T07:37:32.244Z,79.03
2018-11-25T07:40:10.477Z,78.63
2018-11-25T07:42:44.439Z,72.77
2018-11-25T07:45:19.992Z,74.00
2018-11-25T07:47:53.597Z,76.87
2018-11-25T07:50:28.013Z,75.17
2018-11-25T07:53:01.615Z,74.83
2018-11-25T07:55:35.207Z,71.37
2018-11-25T07:58:08.810Z,76.47
2018-11-25T08:00:42.412Z,72.17
2018-11-25T08:03:16.924Z,68.17
2018-11-25T08:05:50.540Z,69.90
2018-11-25T08:08:24.087Z,66.80
2018-11-25T08:10:57.707Z,74.50
2018-11-25T08:13:31.321Z,70.57
2018-11-25T08:16:05.167Z,64.10
2018-11-25T08:18:38.744Z,74.00
2018-11-25T08:21:12.366Z,74.60
2018-11-25T08:23:45.965Z,72.03
2018-11-25T08:26:19.557Z,68.13
2018-11-25T08:28:53.214Z,73.93
2018-11-25T08:31:27.549Z,69.67
2018-11-25T08:34:01.133Z,72.83
2018-11-25T08:36:34.754Z,69.87
2018-11-25T08:39:09.126Z,77.53
2018-11-25T08:41:42.740Z,71.60
2018-11-25T08:44:16.628Z,70.03
2018-11-25T08:46:50.490Z,76.77
2018-11-25T08:49:24.110Z,66.30
2018-11-25T08:51:57.797Z,68.67
2018-11-25T08:54:31.355Z,77.67
2018-11-25T08:57:04.968Z,72.03
2018-11-25T08:59:38.544Z,77.20
2018-11-25T09:02:12.116Z,74.60
2018-11-25T09:04:45.718Z,74.37
2018-11-25T09:07:19.304Z,75.17
2018-11-25T09:09:52.872Z,68.93
2018-11-25T09:12:26.529Z,66.87
2018-11-25T09:15:00.157Z,72.23
2018-11-25T09:17:33.750Z,71.50
2018-11-25T09:20:09.896Z,67.53
2018-11-25T09:22:43.952Z,71.43
2018-11-25T09:25:19.681Z,70.67
2018-11-25T09:27:53.271Z,69.40
2018-11-25T09:30:27.969Z,66.83
2018-11-25T09:33:01.602Z,65.97
2018-11-25T09:35:35.224Z,69.63
2018-11-25T09:38:08.811Z,63.47
2018-11-25T09:40:42.683Z,65.13
2018-11-25T09:43:16.336Z,62.93
2018-11-25T09:45:49.924Z,67.63
2018-11-25T09:48:23.516Z,58.43
2018-11-25T09:50:57.128Z,56.00
2018-11-25T09:53:31.335Z,55.70
2018-11-25T09:56:05.695Z,59.40
2018-11-25T09:58:39.330Z,57.77
2018-11-25T10:01:12.971Z,55.13
2018-11-25T10:03:46.571Z,59.97
2018-11-25T10:06:20.128Z,57.90
2018-11-25T10:08:53.772Z,52.37
2018-11-25T10:11:27.387Z,54.73
2018-11-25T10:14:00.972Z,53.93
2018-11-25T10:16:34.578Z,51.13
2018-11-25T10:19:08.199Z,55.37
2018-11-25T10:21:41.882Z,49.73
2018-11-25T10:24:15.537Z,51.83
2018-11-25T10:26:49.239Z,48.33
2018-11-25T10:29:23.426Z,53.37
2018-11-25T10:31:57.199Z,55.87
2018-11-25T10:34:30.814Z,51.93
2018-11-25T10:37:04.444Z,47.87
2018-11-25T10:39:38.027Z,49.70
2018-11-25T10:42:12.276Z,46.97
2018-11-25T10:44:45.855Z,49.13
2018-11-25T10:47:19.482Z,51.23
2018-11-25T10:49:53.481Z,43.83
2018-11-25T10:52:27.091Z,45.47
2018-11-25T10:55:00.647Z,42.13
2018-11-25T10:57:34.266Z,42.57
2018-11-25T11:00:39.899Z,42.50
2018-11-25T11:03:19.165Z,33.73
2018-11-25T11:05:58.622Z,41.40
2018-11-25T11:08:32.523Z,36.20
2018-11-25T11:11:06.944Z,42.67
2018-11-25T11:13:40.564Z,40.80
2018-11-25T11:16:14.157Z,37.50
2018-11-25T11:18:47.769Z,37.80
2018-11-25T11:21:21.386Z,31.30
2018-11-25T11:23:55.008Z,34.07
2018-11-25T11:26:28.624Z,37.40
2018-11-25T11:29:02.259Z,34.67
2018-11-25T11:31:35.883Z,31.67
2018-11-25T11:34:09.546Z,34.93
2018-11-25T11:36:43.090Z,32.90
2018-11-25T11:39:16.678Z,28.03
2018-11-25T11:41:50.241Z,27.07
2018-11-25T11:44:23.860Z,26.20
2018-11-25T11:46:57.422Z,29.63
2018-11-25T11:49:31.082Z,26.63
2018-11-25T11:52:04.685Z,27.87
2018-11-25T11:54:38.272Z,32.17
2018-11-25T11:57:11.845Z,34.10
2018-11-25T11:59:45.418Z,36.70
2018-11-25T12:02:18.990Z,37.60
2018-11-25T12:04:52.602Z,41.37
2018-11-25T12:07:26.182Z,42.03
2018-11-25T12:09:59.799Z,40.00
2018-11-25T12:12:33.378Z,41.47
2018-11-25T12:15:10.936Z,38.13
2018-11-25T12:17:44.499Z,40.40
2018-11-25T12:20:21.175Z,39.23
2018-11-25T12:22:52.615Z,42.30
2018-11-25T12:25:26.261Z,38.93
2018-11-25T12:27:59.804Z,37.37
2018-11-25T12:30:33.397Z,37.67
2018-11-25T12:33:07.047Z,36.03
2018-11-25T12:35:40.618Z,38.30
2018-11-25T12:38:14.184Z,33.30
2018-11-25T12:40:47.820Z,39.33
2018-11-25T12:43:21.338Z,35.23
2018-11-25T12:45:54.919Z,32.90
2018-11-25T12:48:28.704Z,34.00
2018-11-25T12:51:02.459Z,33.20
2018-11-25T12:53:36.049Z,37.10
2018-11-25T12:56:09.652Z,31.50
2018-11-25T12:58:43.239Z,40.33
2018-11-25T13:01:17.060Z,39.00
2018-11-25T13:03:50.619Z,36.07
2018-11-25T13:06:24.209Z,37.57
2018-11-25T13:08:57.740Z,35.50
2018-11-25T13:11:31.389Z,43.10
2018-11-25T13:14:05.689Z,38.70
2018-11-25T13:16:39.292Z,42.50
2018-11-25T13:19:12.863Z,39.20
2018-11-25T13:21:46.448Z,37.37
2018-11-25T13:24:20.028Z,39.90
2018-11-25T13:26:53.641Z,43.47
2018-11-25T13:29:27.238Z,40.27
2018-11-25T13:32:00.867Z,40.20
2018-11-25T13:34:34.476Z,42.57
2018-11-25T13:37:08.060Z,44.87
2018-11-25T13:39:41.617Z,41.50
2018-11-25T13:42:16.214Z,38.60
2018-11-25T13:44:47.769Z,42.00
2018-11-25T13:47:21.373Z,46.27
2018-11-25T13:49:54.981Z,45.33
2018-11-25T13:52:28.597Z,45.73
2018-11-25T13:55:02.195Z,40.80
2018-11-25T13:57:35.805Z,39.00
2018-11-25T14:00:18.361Z,39.40
2018-11-25T14:02:52.028Z,37.07
2018-11-25T14:05:25.631Z,38.93
2018-11-25T14:08:00.279Z,40.47
2018-11-25T14:10:34.667Z,36.27
2018-11-25T14:13:08.330Z,38.90
2018-11-25T14:15:41.911Z,43.53
2018-11-25T14:18:15.736Z,39.53
2018-11-25T14:20:49.363Z,46.03
2018-11-25T14:23:22.970Z,45.57
2018-11-25T14:25:57.948Z,45.97
2018-11-25T14:28:31.632Z,46.53
2018-11-25T14:31:05.859Z,47.13
2018-11-25T14:33:39.559Z,42.30
2018-11-25T14:36:13.279Z,50.20
2018-11-25T14:38:46.913Z,47.87
2018-11-25T14:41:20.911Z,50.27
2018-11-25T14:43:54.486Z,51.47
2018-11-25T14:46:28.039Z,44.87
2018-11-25T14:49:01.847Z,50.70
2018-11-25T14:51:35.423Z,49.33
2018-11-25T14:54:08.995Z,45.97
2018-11-25T14:56:42.555Z,46.73
2018-11-25T14:59:16.251Z,49.83
2018-11-25T15:01:49.814Z,47.37
2018-11-25T15:04:23.695Z,46.70
2018-11-25T15:06:57.287Z,43.47
2018-11-25T15:09:31.467Z,45.37
2018-11-25T15:12:05.575Z,45.83
2018-11-25T15:14:39.284Z,46.70
2018-11-25T15:17:12.909Z,44.27
2018-11-25T15:19:46.630Z,42.37
2018-11-25T15:22:20.199Z,46.47
2018-11-25T15:24:53.819Z,41.10
2018-11-25T15:27:27.430Z,41.13
2018-11-25T15:30:01.136Z,44.93
2018-11-25T15:32:34.715Z,42.67
2018-11-25T15:35:09.783Z,43.30
2018-11-25T15:37:47.843Z,45.00
2018-11-25T15:40:24.838Z,43.13
2018-11-25T15:42:58.569Z,43.07
2018-11-25T15:45:33.878Z,43.17
2018-11-25T15:48:09.836Z,40.87
2018-11-25T15:50:44.330Z,41.57
2018-11-25T15:53:18.132Z,40.27
2018-11-25T15:55:57.543Z,38.57
2018-11-25T15:58:31.235Z,42.73
2018-11-25T16:01:05.584Z,38.43
2018-11-25T16:03:39.226Z,39.17
2018-11-25T16:06:18.453Z,42.23
2018-11-25T16:08:52.068Z,41.57
2018-11-25T16:11:25.720Z,35.90
2018-11-25T16:13:59.347Z,46.87
2018-11-25T16:16:32.910Z,42.43
2018-11-25T16:19:06.290Z,43.40
2018-11-25T16:21:39.870Z,43.80
2018-11-25T16:24:13.468Z,37.70
2018-11-25T16:26:47.038Z,43.60
2018-11-25T16:29:24.870Z,41.97
2018-11-25T16:31:58.415Z,42.73
2018-11-25T16:34:32.031Z,39.40
2018-11-25T16:37:05.714Z,42.57
2018-11-25T16:39:39.341Z,42.13
2018-11-25T16:42:12.925Z,47.63
2018-11-25T16:44:46.597Z,47.83
2018-11-25T16:47:20.259Z,46.90
2018-11-25T16:49:53.846Z,45.50
2018-11-25T16:52:27.417Z,47.70
2018-11-25T16:55:01.017Z,45.50
2018-11-25T16:57:34.601Z,41.63
2018-11-25T17:00:12.269Z,43.17
2018-11-25T17:02:45.845Z,41.23
2018-11-25T17:05:22.379Z,46.87
2018-11-25T17:08:02.018Z,42.53
2018-11-25T17:10:35.602Z,42.70
2018-11-25T17:13:09.195Z,44.93
2018-11-25T17:15:42.852Z,41.03
2018-11-25T17:18:16.420Z,41.00
2018-11-25T17:20:50.029Z,41.13
2018-11-25T17:23:23.904Z,46.30
2018-11-25T17:25:57.496Z,40.47
2018-11-25T17:28:31.104Z,36.60
2018-11-25T17:31:04.748Z,43.23
2018-11-25T17:33:38.347Z,39.70
2018-11-25T17:36:11.948Z,34.60
2018-11-25T17:38:45.544Z,33.07
2018-11-25T17:41:19.158Z,34.73
2018-11-25T17:43:52.945Z,36.60
2018-11-25T17:46:26.846Z,32.10
2018-11-25T17:49:00.725Z,30.70
2018-11-25T17:51:34.328Z,30.10
2018-11-25T17:54:07.903Z,32.87
2018-11-25T17:56:41.532Z,29.13
2018-11-25T17:59:15.119Z,24.40
2018-11-25T18:01:48.767Z,27.03
2018-11-25T18:04:22.343Z,25.90
2018-11-25T18:06:55.996Z,22.83
2018-11-25T18:09:29.564Z,22.03
2018-11-25T18:12:03.155Z,19.77
2018-11-25T18:14:36.740Z,28.33
2018-11-25T18:17:10.346Z,20.33
2018-11-25T18:19:43.938Z,21.80
2018-11-25T18:22:21.137Z,22.30
2018-11-25T18:24:54.723Z,16.93
2018-11-25T18:27:28.438Z,17.90
2018-11-25T18:30:02.048Z,16.40
2018-11-25T18:32:36.017Z,17.20
2018-11-25T18:35:10.304Z,12.90
2018-11-25T18:37:43.941Z,14.63
2018-11-25T18:40:17.708Z,15.03
2018-11-25T18:42:51.919Z,13.27
2018-11-25T18:45:26.543Z,12.53
2018-11-25T18:48:00.241Z,14.23
2018-11-25T18:50:33.928Z,15.23
2018-11-25T18:53:08.723Z,11.10
2018-11-25T18:55:41.207Z,11.00
2018-11-25T18:58:14.931Z,10.07
2018-11-25T19:01:27.811Z,10.17
2018-11-25T19:04:01.541Z,9.67
2018-11-25T19:06:35.136Z,6.87
2018-11-25T19:09:09.880Z,6.67
2018-11-25T19:11:43.511Z,6.47
2018-11-25T19:14:17.104Z,6.33
2018-11-25T19:16:50.695Z,6.83
2018-11-25T19:19:24.304Z,8.03
2018-11-25T19:21:57.875Z,6.13
2018-11-25T19:24:31.567Z,3.80
2018-11-25T19:27:05.855Z,2.90
2018-11-25T19:29:39.535Z,4.77
2018-11-25T19:32:13.123Z,4.00
2018-11-25T19:34:46.727Z,7.43
2018-11-25T19:37:20.334Z,6.30
2018-11-25T19:39:53.915Z,3.03
2018-11-25T19:42:27.514Z,3.43
2018-11-25T19:45:01.206Z,2.27
2018-11-25T19:47:34.828Z,2.20
2018-11-25T19:50:14.648Z,2.50
2018-11-25T19:52:48.213Z,3.37
2018-11-25T19:55:21.876Z,2.77
2018-11-25T19:57:55.471Z,5.03
2018-11-25T20:00:29.087Z,2.63
2018-11-25T20:03:03.067Z,3.10
2018-11-25T20:05:36.730Z,3.20
2018-11-25T20:08:10.326Z,5.07
2018-11-25T20:10:43.966Z,3.33
2018-11-25T20:13:17.553Z,3.37
2018-11-25T20:15:51.134Z,2.70
2018-11-25T20:18:25.126Z,3.73
2018-11-25T20:21:03.840Z,4.60
2018-11-25T20:23:37.435Z,2.10
2018-11-25T20:26:11.528Z,3.00
2018-11-25T20:28:45.167Z,3.73
2018-11-25T20:31:18.830Z,4.63
2018-11-25T20:33:53.502Z,2.40
2018-11-25T20:36:27.245Z,5.23
2018-11-25T20:39:06.230Z,3.00
2018-11-25T20:41:39.869Z,3.47
2018-11-25T20:44:13.446Z,3.30
2018-11-25T20:46:52.293Z,1.03
2018-11-25T20:49:25.947Z,3.73
2018-11-25T20:52:04.809Z,3.67
2018-11-25T20:54:38.379Z,5.93
2018-11-25T20:57:12.013Z,1.90
2018-11-25T20:59:45.567Z,1.70
2018-11-25T21:02:20.372Z,1.13
2018-11-25T21:04:53.056Z,3.57
2018-11-25T21:07:26.659Z,4.20
2018-11-25T21:10:00.312Z,2.83
2018-11-25T21:12:34.494Z,1.20
2018-11-25T21:15:10.344Z,1.87
2018-11-25T21:17:43.937Z,2.07
2018-11-25T21:20:21.133Z,2.53
2018-11-25T21:22:54.716Z,4.53
2018-11-25T21:25:28.693Z,2.10
2018-11-25T21:28:02.297Z,2.17
2018-11-25T21:30:35.895Z,1.20
2018-11-25T21:33:09.504Z,1.17
2018-11-25T21:35:43.322Z,1.63
2018-11-25T21:38:16.909Z,1.20
2018-11-25T21:40:50.530Z,2.83
2018-11-25T21:43:24.112Z,2.97
2018-11-25T21:45:57.724Z,3.00
2018-11-25T21:48:31.362Z,2.83
2018-11-25T21:51:05.369Z,3.27
2018-11-25T21:53:39.036Z,1.37
2018-11-25T21:56:14.438Z,4.57
2018-11-25T21:58:46.251Z,2.97
2018-11-25T22:01:19.849Z,10.17
2018-11-25T22:03:53.444Z,3.53
2018-11-25T22:06:27.028Z,3.67
2018-11-25T22:09:00.615Z,2.77
2018-11-25T22:11:34.169Z,4.83
2018-11-25T22:14:07.812Z,6.93
2018-11-25T22:16:41.735Z,3.83
2018-11-25T22:19:15.343Z,4.33
2018-11-25T22:21:48.950Z,6.23
2018-11-25T22:24:22.562Z,5.30
2018-11-25T22:26:56.143Z,8.20
2018-11-25T22:29:29.730Z,5.37
2018-11-25T22:32:03.306Z,9.37
2018-11-25T22:34:36.871Z,11.73
2018-11-25T22:37:10.980Z,5.17
2018-11-25T22:39:44.576Z,4.87
2018-11-25T22:42:18.135Z,4.73
2018-11-25T22:44:51.747Z,7.23
2018-11-25T22:47:25.332Z,5.03
2018-11-25T22:49:58.895Z,4.63
2018-11-25T22:52:32.495Z,8.13
2018-11-25T22:55:09.059Z,6.77
2018-11-25T22:57:42.644Z,6.33
2018-11-25T23:00:20.787Z,8.63
2018-11-25T23:02:54.356Z,5.47
2018-11-25T23:05:39.099Z,8.93
2018-11-25T23:08:12.720Z,5.93
2018-11-25T23:10:46.333Z,5.13
2018-11-25T23:13:20.331Z,5.57
2018-11-25T23:15:53.936Z,2.30
2018-11-25T23:18:27.598Z,3.73
2018-11-25T23:21:01.252Z,1.53
2018-11-25T23:23:34.858Z,1.63
2018-11-25T23:26:08.474Z,2.67
2018-11-25T23:28:42.081Z,6.00
2018-11-25T23:31:15.691Z,3.67
2018-11-25T23:33:49.570Z,1.43
2018-11-25T23:36:23.153Z,5.03
2018-11-25T23:38:56.786Z,1.97
2018-11-25T23:41:30.431Z,3.97
2018-11-25T23:44:04.517Z,3.73
2018-11-25T23:46:38.134Z,3.70
2018-11-25T23:49:11.691Z,4.37
2018-11-25T23:51:45.947Z,1.70
2018-11-25T23:54:19.547Z,4.17
2018-11-25T23:56:53.197Z,2.67
2018-11-25T23:59:26.799Z,3.33
